Saturday, August 18, 2018, 9:56 AM EDT
Back to Local

KPHL, Philadelphia International Airpt

Location: Philadelphia, PA, United States Lat: 39.867
Local Time: 9:56 AM EDT (13:56 GMT) Lon: -75.233
Time Zone: US/Eastern Elev: 19 ft

Show me the last for .
Show Decoded

2018-08-18 09:42 METAR KPHL 181342Z 25008KT 10SM FEW005 SCT030 BKN140 BKN170 BKN250 25/23 A2989
                 RMK AO2 RAB10E21 P0000 T02500228 =
2018-08-18 08:54 METAR KPHL 181254Z 25010KT 10SM FEW060 SCT110 BKN140 BKN170 OVC250 24/23 A2989
                 RMK AO2 SLP122 T02440228 =
2018-08-18 07:54 METAR KPHL 181154Z 23008KT 10SM BKN065 BKN090 BKN160 OVC250 23/23 A2990 RMK AO2
                 SLP124 60021 70032 T02330228 10244 20228 55006 $ =
2018-08-18 06:54 METAR KPHL 181054Z 22006KT 10SM FEW070 SCT110 BKN150 OVC250 23/23 A2989 RMK AO2
                 RAB12E35 SLP122 P0001 T02330228 $ =
2018-08-18 05:54 METAR KPHL 180954Z 25006KT 10SM SCT110 BKN150 OVC250 23/22 A2990 RMK AO2 SLP124
                 T02330222 $ =
2018-08-18 04:54 METAR KPHL 180854Z 22004KT 10SM FEW110 BKN150 BKN230 23/22 A2992 RMK AO2 SLP130
                 60020 T02330222 55008 $ =
2018-08-18 03:54 METAR KPHL 180754Z 22005KT 10SM FEW070 SCT120 BKN230 23/22 A2991 RMK AO2 RAE09
                 TSE05 SLP126 P0001 T02330222 $ =
2018-08-18 03:06 METAR KPHL 180706Z 24010KT 10SM -RA FEW035 SCT070 SCT120 OVC230 23/22 A2991 RMK
                 AO2 LTG DSNT SE TSE05 P0001 T02330217 $ =
2018-08-18 02:54 METAR KPHL 180654Z 25011KT 10SM -TSRA FEW050CB BKN070 OVC120 24/22 A2992 RMK AO2
                 LTG DSNT E-S TSB0558 SLP131 OCNL LTGIC VC SE TS VC SE MOV E P0019 T02390217 $ =
2018-08-18 02:47 METAR KPHL 180647Z 24011KT 10SM -TSRA FEW040CB SCT060 OVC120 24/22 A2992 RMK AO2
                 LTG DSNT SE AND S TSB0558 OCNL LTGIC VC S TS VC S MOV E P0019 T02390222 $ =
2018-08-18 02:29 METAR KPHL 180629Z 26008KT 7SM -TSRA SCT043CB BKN070 OVC120 23/22 A2993 RMK AO2
                 LTG DSNT E-SW TSB0558 OCNL LTGIC VC E TS VC E MOV E P0018 T02330222 $ =
2018-08-18 02:21 METAR KPHL 180621Z 26007KT 4SM R09R/6000VP6000FT -TSRA BR SCT041CB BKN060 OVC120
                 23/22 A2993 RMK AO2 LTG DSNT E-SW TSB0558 OCNL LTGIC OHD TS OHD MOV E P0016
                 T02330222 $ =
2018-08-18 02:14 METAR KPHL 180614Z 24008KT 1 1/2SM R09R/6000VP6000FT +TSRA BR SCT048CB BKN060
                 OVC110 23/22 A2994 RMK AO2 LTG DSNT ALQDS TSB0558 OCNL LTGIC OHD TS OHD MOV E
                 P0010 T02330217 $ =
2018-08-18 02:11 METAR KPHL 180611Z 22010KT 7SM -TSRA BKN048CB BKN060 OVC110 23/22 A2995 RMK AO2
                 LTG DSNT ALQDS TSB0558 OCNL LTGIC OHD TS OHD MOV E P0009 T02330222 $ =
2018-08-18 02:03 METAR KPHL 180603Z 26011KT 3SM +TSRA BR SCT050CB OVC075 24/22 A2994 RMK AO2 LTG
                 DSNT ALQDS TSB0558 OCNL LTGIC VC SW TS VC SW MOV E P0003 T02390222 $ =
2018-08-18 01:58 METAR KPHL 180558Z 28011KT 8SM -TSRA SCT050CB OVC070 24/22 A2994 RMK AO2 LTG
                 DSNT ALQDS TSB58 OCNL LTGIC VC SW TS VC SW MOV E P0000 T02440222 $ =
2018-08-18 01:54 METAR KPHL 180554Z 29010KT 8SM -RA FEW021 SCT049 OVC070 24/22 A2994 RMK AO2 PK
                 WND 26028/0516 LTG DSNT ALQDS RAB02 TSB09 SLP139 OCNL LTGIC DSNT E CB DSNT E MOV
                 E P0011 60011 T02440222 10294 20239 51005 $ =
2018-08-18 01:49 METAR KPHL 180549Z 29010KT 7SM VCTS -RA FEW021 BKN050 OVC090 24/22 A2994 RMK AO2
                 PK WND 26028/0516 LTG DSNT ALQDS RAB02 TSB09 OCNL LTGIC DSNT E CB DSNT E MOV E
                 P0011 $ =
2018-08-18 01:39 METAR KPHL 180539Z 26011KT 4SM TSRA BR SCT021 BKN050CB OVC100 24/22 A2995 RMK
                 AO2 PK WND 26028/0516 LTG DSNT ALQDS RAB02 TSB09 OCNL LTGIC OHD TS OHD MOV E
                 P0006 T02390222 $ =
2018-08-18 01:18 METAR KPHL 180518Z 26023G28KT 6SM -TSRA SCT020 BKN055CB OVC110 26/22 A2997 RMK
                 AO2 PK WND 26028/0516 LTG DSNT SW AND W RAB02 TSB09 PRESRR OCNL LTGIC OHD TS OHD
                 MOV E P0000 T02560222 $ =
2018-08-18 01:09 METAR KPHL 180509Z 26012KT 9SM -TSRA FEW020 SCT047CB OVC060 27/24 A2995 RMK AO2
                 LTG DSNT SW AND W RAB02 TSB09 OCNL LTGIC VC SW TS VC SW MOV NE P0000 T02670244 $
                 =
2018-08-18 00:54 METAR KPHL 180454Z 25009KT 10SM SCT047 BKN060 BKN250 27/24 A2994 RMK AO2 LTG
                 DSNT SW SLP139 OCNL LTGIC DSNT SW CB DSNT SW MOV NE T02720239 403390233 $ =
2018-08-17 23:54 METAR KPHL 180354Z 22009KT 10SM FEW180 BKN250 28/23 A2993 RMK AO2 SLP134
                 T02780233 $ =
2018-08-17 22:54 METAR KPHL 180254Z 24010KT 10SM BKN180 OVC250 28/23 A2994 RMK AO2 SLP138
                 T02830228 56001 $ =
2018-08-17 21:54 METAR KPHL 180154Z 21006KT 10SM OVC250 28/23 A2994 RMK AO2 SLP138 T02830228 $ =
2018-08-17 20:54 METAR KPHL 180054Z 19007KT 10SM BKN210 OVC260 29/23 A2994 RMK AO2 SLP137
                 T02890228 $ =
2018-08-17 19:54 METAR KPHL 172354Z 20007KT 10SM FEW040 SCT200 OVC250 29/23 A2994 RMK AO2 LTG
                 DSNT NW SLP139 T02940228 10339 20294 55005 $ =
2018-08-17 18:54 METAR KPHL 172254Z 18008KT 10SM FEW040 SCT200 BKN250 30/23 A2993 RMK AO2 SLP136
                 T03000233 $ =
2018-08-17 17:54 METAR KPHL 172154Z 19009KT 10SM FEW040 SCT200 BKN260 31/22 A2995 RMK AO2 SLP141
                 T03060222 $ =
2018-08-17 16:54 METAR KPHL 172054Z 19014G20KT 10SM SCT042 SCT150 BKN260 32/22 A2996 RMK AO2
                 SLP143 T03170222 56017 $ =
2018-08-17 15:54 METAR KPHL 171954Z 20011KT 10SM SCT043 SCT160 BKN260 32/23 A2997 RMK AO2 SLP149
                 T03220228 $ =
2018-08-17 14:54 METAR KPHL 171854Z 19011KT 10SM FEW044 SCT120 SCT160 BKN260 33/23 A2999 RMK AO2
                 SLP153 T03280228 =
2018-08-17 13:54 METAR KPHL 171754Z 18012G19KT 10SM FEW044 SCT120 SCT160 BKN260 33/22 A3000 RMK
                 AO2 SLP160 T03280222 10328 20250 58021 =
2018-08-17 12:54 METAR KPHL 171654Z 20009KT 10SM FEW032 FEW120 SCT160 SCT220 BKN280 32/22 A3003
                 RMK AO2 SLP168 T03170222 =
2018-08-17 11:54 METAR KPHL 171554Z 21006KT 10SM FEW028 FEW120 SCT180 BKN220 BKN280 31/23 A3005
                 RMK AO2 SLP176 T03060233 =
2018-08-17 10:54 METAR KPHL 171454Z 18005KT 10SM FEW120 SCT180 BKN220 OVC280 29/24 A3007 RMK AO2
                 SLP181 T02940239 58005 =

Support USWX by starting your Amazon purchase here.